createdAt,value
2017-10-05T00:00:33.198Z,4.37
2017-10-05T00:03:00.715Z,4.20
2017-10-05T00:05:28.218Z,4.00
2017-10-05T00:07:55.724Z,4.10
2017-10-05T00:10:23.258Z,3.63
2017-10-05T00:12:50.788Z,4.30
2017-10-05T00:15:18.293Z,4.10
2017-10-05T00:17:45.803Z,4.13
2017-10-05T00:20:13.333Z,4.10
2017-10-05T00:22:40.839Z,3.60
2017-10-05T00:25:08.351Z,4.50
2017-10-05T00:27:35.867Z,4.13
2017-10-05T00:30:03.399Z,3.50
2017-10-05T00:32:30.925Z,3.27
2017-10-05T00:34:58.432Z,3.60
2017-10-05T00:37:25.943Z,3.67
2017-10-05T00:39:53.450Z,3.40
2017-10-05T00:42:20.972Z,3.50
2017-10-05T00:44:48.472Z,3.50
2017-10-05T00:47:15.984Z,3.23
2017-10-05T00:49:43.480Z,3.53
2017-10-05T00:52:10.984Z,3.27
2017-10-05T00:54:38.507Z,2.83
2017-10-05T00:57:06.019Z,3.10
2017-10-05T00:59:33.527Z,3.80
2017-10-05T01:02:01.064Z,3.43
2017-10-05T01:04:28.570Z,3.27
2017-10-05T01:06:56.070Z,3.20
2017-10-05T01:09:23.572Z,2.80
2017-10-05T01:11:51.120Z,3.07
2017-10-05T01:14:18.678Z,3.50
2017-10-05T01:16:46.243Z,3.17
2017-10-05T01:19:13.743Z,3.57
2017-10-05T01:21:41.269Z,3.50
2017-10-05T01:24:08.787Z,2.83
2017-10-05T01:26:36.390Z,2.70
2017-10-05T01:29:03.886Z,3.50
2017-10-05T01:31:31.387Z,3.17
2017-10-05T01:33:58.904Z,3.10
2017-10-05T01:36:26.429Z,2.97
2017-10-05T01:38:53.927Z,2.50
2017-10-05T01:41:21.435Z,2.77
2017-10-05T01:43:48.936Z,2.77
2017-10-05T01:46:16.446Z,2.80
2017-10-05T01:48:43.964Z,3.00
2017-10-05T01:51:11.465Z,2.10
2017-10-05T01:53:39.000Z,2.90
2017-10-05T01:56:06.503Z,2.43
2017-10-05T01:58:34.023Z,3.10
2017-10-05T02:01:01.638Z,2.40
2017-10-05T02:03:29.144Z,2.43
2017-10-05T02:05:56.650Z,2.33
2017-10-05T02:08:24.168Z,2.20
2017-10-05T02:10:51.695Z,2.40
2017-10-05T02:13:19.195Z,2.20
2017-10-05T02:15:46.704Z,2.57
2017-10-05T02:18:14.206Z,2.27
2017-10-05T02:20:41.710Z,2.80
2017-10-05T02:23:09.215Z,2.13
2017-10-05T02:25:36.738Z,2.20
2017-10-05T02:28:04.243Z,2.00
2017-10-05T02:30:31.746Z,2.13
2017-10-05T02:32:59.263Z,1.60
2017-10-05T02:35:26.785Z,1.70
2017-10-05T02:37:54.283Z,2.10
2017-10-05T02:40:21.767Z,1.90
2017-10-05T02:42:49.373Z,1.40
2017-10-05T02:45:16.888Z,1.20
2017-10-05T02:47:44.439Z,1.17
2017-10-05T02:50:11.943Z,1.50
2017-10-05T02:52:39.442Z,1.07
2017-10-05T02:55:06.964Z,0.97
2017-10-05T02:57:34.509Z,2.30
2017-10-05T03:00:02.032Z,1.20
2017-10-05T03:02:29.543Z,1.23
2017-10-05T03:04:57.083Z,1.73
2017-10-05T03:07:24.578Z,1.10
2017-10-05T03:09:52.108Z,1.43
2017-10-05T03:12:19.615Z,0.90
2017-10-05T03:14:47.111Z,1.40
2017-10-05T03:17:14.625Z,1.00
2017-10-05T03:19:42.195Z,1.50
2017-10-05T03:22:09.703Z,1.20
2017-10-05T03:24:37.208Z,1.23
2017-10-05T03:27:04.720Z,1.10
2017-10-05T03:29:32.227Z,1.20
2017-10-05T03:31:59.794Z,1.40
2017-10-05T03:34:27.313Z,1.20
2017-10-05T03:36:54.840Z,1.27
2017-10-05T03:39:22.340Z,1.23
2017-10-05T03:41:49.870Z,1.57
2017-10-05T03:44:17.367Z,2.30
2017-10-05T03:46:44.878Z,1.13
2017-10-05T03:49:12.389Z,1.20
2017-10-05T03:51:39.896Z,1.37
2017-10-05T03:54:07.677Z,1.37
2017-10-05T03:56:35.174Z,1.30
2017-10-05T03:59:02.764Z,0.97
2017-10-05T04:01:30.275Z,1.10
2017-10-05T04:03:57.766Z,1.00
2017-10-05T04:06:25.258Z,1.10
2017-10-05T04:08:52.777Z,1.40
2017-10-05T04:11:20.291Z,0.87
2017-10-05T04:13:47.792Z,1.03
2017-10-05T04:16:16.154Z,1.27
2017-10-05T04:18:43.646Z,1.20
2017-10-05T04:21:11.169Z,1.27
2017-10-05T04:23:39.568Z,1.13
2017-10-05T04:26:07.070Z,1.30
2017-10-05T04:28:34.578Z,1.37
2017-10-05T04:31:02.102Z,1.00
2017-10-05T04:33:29.631Z,1.07
2017-10-05T04:35:57.126Z,0.93
2017-10-05T04:38:24.632Z,1.30
2017-10-05T04:40:52.304Z,1.50
2017-10-05T04:43:19.858Z,2.03
2017-10-05T04:45:47.367Z,1.60
2017-10-05T04:48:14.868Z,2.20
2017-10-05T04:50:42.404Z,1.77
2017-10-05T04:53:09.915Z,1.60
2017-10-05T04:55:37.447Z,1.13
2017-10-05T04:58:04.969Z,1.20
2017-10-05T05:00:32.484Z,1.60
2017-10-05T05:03:00.012Z,1.70
2017-10-05T05:05:27.542Z,1.83
2017-10-05T05:07:55.090Z,1.30
2017-10-05T05:10:22.612Z,1.17
2017-10-05T05:12:50.109Z,0.80
2017-10-05T05:15:17.607Z,0.93
2017-10-05T05:17:45.107Z,1.00
2017-10-05T05:20:12.616Z,0.90
2017-10-05T05:22:40.114Z,1.03
2017-10-05T05:25:07.634Z,0.80
2017-10-05T05:27:36.509Z,0.97
2017-10-05T05:30:04.061Z,1.00
2017-10-05T05:32:31.570Z,0.80
2017-10-05T05:34:59.706Z,0.80
2017-10-05T05:37:29.762Z,0.80
2017-10-05T05:39:57.285Z,0.90
2017-10-05T05:42:24.801Z,0.93
2017-10-05T05:44:52.303Z,1.00
2017-10-05T05:47:19.832Z,1.00
2017-10-05T05:49:47.379Z,1.00
2017-10-05T05:52:14.888Z,0.97
2017-10-05T05:54:42.392Z,1.20
2017-10-05T05:57:09.896Z,1.00
2017-10-05T05:59:37.434Z,1.10
2017-10-05T06:02:05.083Z,0.70
2017-10-05T06:04:32.594Z,0.87
2017-10-05T06:07:00.108Z,0.80
2017-10-05T06:09:27.605Z,1.10
2017-10-05T06:11:55.117Z,1.60
2017-10-05T06:14:22.635Z,1.20
2017-10-05T06:16:55.286Z,1.20
2017-10-05T06:19:22.816Z,3.60
2017-10-05T06:21:50.328Z,1.30
2017-10-05T06:24:17.852Z,1.07
2017-10-05T06:26:45.370Z,1.10
2017-10-05T06:29:12.883Z,1.40
2017-10-05T06:31:40.400Z,1.00
2017-10-05T06:34:07.902Z,1.67
2017-10-05T06:36:35.426Z,1.30
2017-10-05T06:39:02.934Z,1.00
2017-10-05T06:41:30.447Z,1.27
2017-10-05T06:43:57.966Z,0.80
2017-10-05T06:46:25.470Z,1.77
2017-10-05T06:48:52.999Z,1.30
2017-10-05T06:51:20.546Z,1.03
2017-10-05T06:53:48.081Z,1.80
2017-10-05T06:56:15.620Z,1.33
2017-10-05T06:58:43.135Z,1.30
2017-10-05T07:01:10.666Z,1.30
2017-10-05T07:03:38.248Z,1.20
2017-10-05T07:06:05.746Z,1.80
2017-10-05T07:08:33.254Z,2.00
2017-10-05T07:11:00.767Z,2.20
2017-10-05T07:13:28.294Z,1.37
2017-10-05T07:15:55.814Z,1.90
2017-10-05T07:18:23.325Z,1.87
2017-10-05T07:20:50.981Z,1.47
2017-10-05T07:23:18.518Z,1.43
2017-10-05T07:25:46.030Z,1.30
2017-10-05T07:28:13.567Z,1.43
2017-10-05T07:30:41.078Z,1.27
2017-10-05T07:33:08.601Z,1.27
2017-10-05T07:35:36.124Z,1.37
2017-10-05T07:38:03.646Z,1.30
2017-10-05T07:40:31.155Z,1.27
2017-10-05T07:42:58.660Z,1.27
2017-10-05T07:45:26.183Z,1.50
2017-10-05T07:47:53.703Z,1.20
2017-10-05T07:50:21.224Z,1.27
2017-10-05T07:52:48.840Z,1.20
2017-10-05T07:55:16.351Z,1.10
2017-10-05T07:57:43.878Z,1.60
2017-10-05T08:00:11.413Z,2.00
2017-10-05T08:02:38.911Z,1.10
2017-10-05T08:05:06.408Z,1.40
2017-10-05T08:07:33.904Z,1.43
2017-10-05T08:10:01.432Z,1.13
2017-10-05T08:12:28.941Z,1.53
2017-10-05T08:14:56.483Z,1.33
2017-10-05T08:17:23.983Z,1.13
2017-10-05T08:19:51.494Z,1.50
2017-10-05T08:22:19.027Z,0.93
2017-10-05T08:24:46.556Z,1.50
2017-10-05T08:27:14.060Z,1.67
2017-10-05T08:29:41.579Z,1.00
2017-10-05T08:32:09.098Z,1.23
2017-10-05T08:34:36.624Z,1.70
2017-10-05T08:37:04.185Z,1.60
2017-10-05T08:39:31.738Z,1.70
2017-10-05T08:41:59.247Z,1.20
2017-10-05T08:44:26.752Z,1.40
2017-10-05T08:46:54.272Z,1.17
2017-10-05T08:49:21.805Z,1.23
2017-10-05T08:51:49.316Z,1.17
2017-10-05T08:54:16.824Z,1.47
2017-10-05T08:56:44.331Z,1.13
2017-10-05T08:59:11.838Z,1.17
2017-10-05T09:01:39.350Z,1.30
2017-10-05T09:04:06.887Z,1.77
2017-10-05T09:06:34.394Z,1.47
2017-10-05T09:09:01.918Z,1.43
2017-10-05T09:11:29.432Z,1.33
2017-10-05T09:13:57.004Z,1.00
2017-10-05T09:16:24.505Z,1.30
2017-10-05T09:18:52.024Z,1.20
2017-10-05T09:21:19.528Z,1.33
2017-10-05T09:23:47.079Z,1.30
2017-10-05T09:26:14.597Z,0.83
2017-10-05T09:28:42.199Z,1.10
2017-10-05T09:31:09.741Z,1.03
2017-10-05T09:33:37.257Z,1.37
2017-10-05T09:36:04.759Z,1.50
2017-10-05T09:38:32.274Z,1.23
2017-10-05T09:40:59.786Z,1.13
2017-10-05T09:43:27.287Z,1.30
2017-10-05T09:45:54.842Z,1.23
2017-10-05T09:48:22.376Z,0.93
2017-10-05T09:50:49.891Z,0.93
2017-10-05T09:53:17.433Z,0.93
2017-10-05T09:55:44.958Z,0.90
2017-10-05T09:58:12.470Z,1.20
2017-10-05T10:00:40.015Z,1.00
2017-10-05T10:03:07.521Z,1.20
2017-10-05T10:05:35.051Z,1.00
2017-10-05T10:08:02.559Z,1.03
2017-10-05T10:10:30.087Z,0.97
2017-10-05T10:12:57.619Z,1.00
2017-10-05T10:15:25.135Z,1.00
2017-10-05T10:17:52.655Z,1.00
2017-10-05T10:20:20.176Z,1.10
2017-10-05T10:22:47.700Z,0.83
2017-10-05T10:25:15.207Z,0.87
2017-10-05T10:27:42.723Z,0.80
2017-10-05T10:30:10.234Z,1.10
2017-10-05T10:32:37.762Z,1.03
2017-10-05T10:35:05.360Z,0.90
2017-10-05T10:37:32.880Z,0.70
2017-10-05T10:40:00.382Z,0.83
2017-10-05T10:42:27.901Z,1.10
2017-10-05T10:44:55.412Z,0.90
2017-10-05T10:47:22.923Z,1.07
2017-10-05T10:49:50.468Z,1.40
2017-10-05T10:52:17.986Z,0.90
2017-10-05T10:54:45.504Z,1.20
2017-10-05T10:57:13.024Z,0.90
2017-10-05T10:59:40.553Z,1.17
2017-10-05T11:02:08.066Z,1.00
2017-10-05T11:04:35.571Z,0.90
2017-10-05T11:07:03.095Z,1.10
2017-10-05T11:09:30.592Z,0.83
2017-10-05T11:11:58.094Z,0.90
2017-10-05T11:14:25.616Z,1.10
2017-10-05T11:16:53.119Z,1.07
2017-10-05T11:19:20.631Z,1.10
2017-10-05T11:21:48.158Z,0.83
2017-10-05T11:24:15.795Z,0.73
2017-10-05T11:26:43.590Z,0.83
2017-10-05T11:29:11.122Z,0.80
2017-10-05T11:31:38.652Z,1.03
2017-10-05T11:34:06.264Z,0.90
2017-10-05T11:36:33.782Z,0.97
2017-10-05T11:39:01.303Z,1.47
2017-10-05T11:41:28.813Z,0.87
2017-10-05T11:43:56.338Z,0.80
2017-10-05T11:46:23.863Z,0.70
2017-10-05T11:48:51.389Z,1.10
2017-10-05T11:51:18.900Z,0.80
2017-10-05T11:53:46.417Z,0.87
2017-10-05T11:56:13.954Z,1.27
2017-10-05T11:58:41.472Z,1.00
2017-10-05T12:01:08.976Z,1.30
2017-10-05T12:03:36.485Z,1.13
2017-10-05T12:06:03.998Z,1.40
2017-10-05T12:08:31.547Z,1.13
2017-10-05T12:10:59.066Z,1.23
2017-10-05T12:13:26.682Z,0.90
2017-10-05T12:15:54.207Z,0.80
2017-10-05T12:18:21.723Z,1.27
2017-10-05T12:20:49.245Z,0.90
2017-10-05T12:23:16.806Z,1.10
2017-10-05T12:25:44.320Z,1.80
2017-10-05T12:28:11.829Z,1.20
2017-10-05T12:30:46.876Z,1.23
2017-10-05T12:33:14.390Z,1.03
2017-10-05T12:35:41.969Z,0.90
2017-10-05T12:38:09.497Z,1.20
2017-10-05T12:40:37.015Z,1.00
2017-10-05T12:43:04.526Z,0.93
2017-10-05T12:45:32.034Z,1.30
2017-10-05T12:47:59.556Z,0.70
2017-10-05T12:50:27.106Z,1.13
2017-10-05T12:52:54.624Z,1.53
2017-10-05T12:55:22.135Z,1.10
2017-10-05T12:57:49.688Z,0.90
2017-10-05T13:00:17.224Z,1.17
2017-10-05T13:02:44.736Z,1.23
2017-10-05T13:05:12.241Z,1.13
2017-10-05T13:07:39.751Z,1.47
2017-10-05T13:10:07.280Z,1.07
2017-10-05T13:12:34.791Z,1.13
2017-10-05T13:15:02.304Z,1.20
2017-10-05T13:17:29.846Z,1.10
2017-10-05T13:19:57.351Z,1.10
2017-10-05T13:22:24.857Z,1.10
2017-10-05T13:24:52.367Z,0.90
2017-10-05T13:27:19.880Z,1.07
2017-10-05T13:29:47.396Z,1.10
2017-10-05T13:32:15.004Z,1.03
2017-10-05T13:34:42.530Z,0.93
2017-10-05T13:37:10.049Z,1.23
2017-10-05T13:39:37.589Z,1.00
2017-10-05T13:42:05.100Z,1.13
2017-10-05T13:44:32.636Z,1.03
2017-10-05T13:47:00.163Z,0.90
2017-10-05T13:49:27.672Z,1.00
2017-10-05T13:51:55.194Z,1.27
2017-10-05T13:54:22.735Z,1.30
2017-10-05T13:56:50.244Z,1.20
2017-10-05T13:59:17.781Z,1.40
2017-10-05T14:01:45.304Z,0.90
2017-10-05T14:04:12.810Z,1.03
2017-10-05T14:06:40.344Z,1.17
2017-10-05T14:09:07.863Z,1.43
2017-10-05T14:11:35.416Z,1.87
2017-10-05T14:14:02.919Z,1.80
2017-10-05T14:16:30.424Z,1.17
2017-10-05T14:18:57.928Z,1.33
2017-10-05T14:21:25.441Z,1.87
2017-10-05T14:23:52.972Z,1.37
2017-10-05T14:26:20.486Z,1.27
2017-10-05T14:28:48.016Z,1.33
2017-10-05T14:31:15.535Z,1.20
2017-10-05T14:33:43.063Z,1.60
2017-10-05T14:36:10.609Z,1.20
2017-10-05T14:38:38.264Z,1.10
2017-10-05T14:41:05.767Z,1.00
2017-10-05T14:43:33.287Z,0.90
2017-10-05T14:46:00.800Z,1.43
2017-10-05T14:48:28.307Z,1.20
2017-10-05T14:50:55.883Z,1.03
2017-10-05T14:53:23.404Z,1.23
2017-10-05T14:55:50.934Z,1.10
2017-10-05T14:58:18.452Z,1.27
2017-10-05T15:00:45.958Z,1.23
2017-10-05T15:03:13.484Z,0.70
2017-10-05T15:05:41.006Z,1.10
2017-10-05T15:08:08.545Z,1.60
2017-10-05T15:10:36.055Z,1.73
2017-10-05T15:13:03.550Z,1.20
2017-10-05T15:15:31.056Z,1.43
2017-10-05T15:17:58.584Z,1.13
2017-10-05T15:20:26.243Z,1.40
2017-10-05T15:22:53.764Z,1.60
2017-10-05T15:25:21.300Z,1.17
2017-10-05T15:27:48.818Z,0.93
2017-10-05T15:30:16.368Z,1.40
2017-10-05T15:32:43.898Z,0.70
2017-10-05T15:35:11.422Z,1.00
2017-10-05T15:37:39.035Z,1.07
2017-10-05T15:40:06.555Z,0.73
2017-10-05T15:42:34.072Z,1.10
2017-10-05T15:45:01.579Z,1.20
2017-10-05T15:47:29.137Z,1.33
2017-10-05T15:49:56.640Z,1.13
2017-10-05T15:52:24.196Z,1.30
2017-10-05T15:54:51.712Z,1.30
2017-10-05T15:57:19.226Z,1.13
2017-10-05T15:59:46.751Z,1.03
2017-10-05T16:02:14.315Z,1.27
2017-10-05T16:04:41.814Z,1.30
2017-10-05T16:07:09.376Z,1.10
2017-10-05T16:09:36.895Z,1.20
2017-10-05T16:12:04.405Z,1.17
2017-10-05T16:14:32.273Z,1.50
2017-10-05T16:16:59.789Z,1.30
2017-10-05T16:19:27.305Z,1.40
2017-10-05T16:21:54.846Z,1.80
2017-10-05T16:24:22.507Z,1.63
2017-10-05T16:26:50.038Z,1.67
2017-10-05T16:29:17.582Z,1.20
2017-10-05T16:31:45.095Z,1.20
2017-10-05T16:34:12.595Z,2.40
2017-10-05T16:36:40.115Z,1.50
2017-10-05T16:39:07.631Z,1.30
2017-10-05T16:41:35.154Z,1.33
2017-10-05T16:44:02.688Z,1.67
2017-10-05T16:46:30.202Z,2.40
2017-10-05T16:48:57.736Z,1.77
2017-10-05T16:51:25.257Z,2.00
2017-10-05T16:53:52.771Z,1.80
2017-10-05T16:56:20.279Z,1.60
2017-10-05T16:58:47.806Z,1.10
2017-10-05T17:01:15.351Z,1.47
2017-10-05T17:03:42.934Z,1.73
2017-10-05T17:06:10.451Z,1.37
2017-10-05T17:08:37.959Z,2.03
2017-10-05T17:11:05.494Z,1.43
2017-10-05T17:13:33.044Z,1.67
2017-10-05T17:16:00.540Z,1.30
2017-10-05T17:18:28.058Z,1.70
2017-10-05T17:20:55.644Z,2.07
2017-10-05T17:23:23.180Z,1.90
2017-10-05T17:25:50.707Z,1.40
2017-10-05T17:28:18.238Z,1.57
2017-10-05T17:30:45.779Z,1.70
2017-10-05T17:33:13.306Z,1.40
2017-10-05T17:35:40.896Z,1.27
2017-10-05T17:38:08.420Z,1.40
2017-10-05T17:40:35.941Z,1.90
2017-10-05T17:43:03.468Z,1.40
2017-10-05T17:45:31.003Z,1.07
2017-10-05T17:47:58.517Z,1.47
2017-10-05T17:50:26.065Z,1.47
2017-10-05T17:52:53.640Z,1.70
2017-10-05T17:55:21.215Z,1.50
2017-10-05T17:57:48.749Z,1.40
2017-10-05T18:00:16.267Z,1.80
2017-10-05T18:02:43.843Z,2.10
2017-10-05T18:05:11.700Z,1.83
2017-10-05T18:07:39.382Z,2.23
2017-10-05T18:10:07.252Z,2.90
2017-10-05T18:12:35.467Z,1.73
2017-10-05T18:15:03.856Z,1.60
2017-10-05T18:17:31.403Z,1.47
2017-10-05T18:19:58.908Z,1.40
2017-10-05T18:22:26.603Z,1.33
2017-10-05T18:24:54.137Z,1.90
2017-10-05T18:27:21.778Z,1.20
2017-10-05T18:29:49.282Z,1.13
2017-10-05T18:32:17.744Z,9.57
2017-10-05T18:34:45.312Z,2.20
2017-10-05T18:37:12.855Z,1.10
2017-10-05T18:39:40.378Z,1.00
2017-10-05T18:42:07.892Z,2.13
2017-10-05T18:44:35.419Z,1.00
2017-10-05T18:47:02.970Z,1.10
2017-10-05T18:49:30.511Z,1.20
2017-10-05T18:51:58.060Z,1.03
2017-10-05T18:54:25.624Z,1.60
2017-10-05T18:56:53.244Z,0.93
2017-10-05T18:59:20.777Z,1.30
2017-10-05T19:01:48.352Z,1.17
2017-10-05T19:04:15.864Z,1.40
2017-10-05T19:06:43.379Z,1.30
2017-10-05T19:09:10.914Z,2.07
2017-10-05T19:11:38.503Z,1.43
2017-10-05T19:14:06.094Z,1.50
2017-10-05T19:16:33.656Z,1.30
2017-10-05T19:19:01.220Z,1.70
2017-10-05T19:21:28.755Z,1.73
2017-10-05T19:23:56.268Z,1.57
2017-10-05T19:26:23.925Z,1.60
2017-10-05T19:28:51.494Z,1.90
2017-10-05T19:31:19.003Z,1.73
2017-10-05T19:33:46.641Z,2.00
2017-10-05T19:36:14.159Z,1.43
2017-10-05T19:38:41.686Z,1.80
2017-10-05T19:41:09.220Z,2.60
2017-10-05T19:43:36.818Z,1.43
2017-10-05T19:46:04.375Z,1.20
2017-10-05T19:48:31.931Z,1.83
2017-10-05T19:50:59.444Z,1.07
2017-10-05T19:53:27.021Z,1.63
2017-10-05T19:55:54.716Z,1.60
2017-10-05T19:58:22.236Z,1.00
2017-10-05T20:00:49.820Z,1.20
2017-10-05T20:03:17.354Z,1.80
2017-10-05T20:05:44.890Z,1.13
2017-10-05T20:08:12.419Z,1.43
2017-10-05T20:10:39.936Z,1.40
2017-10-05T20:13:07.526Z,3.13
2017-10-05T20:15:35.119Z,1.23
2017-10-05T20:18:08.227Z,1.17
2017-10-05T20:20:50.262Z,1.00
2017-10-05T20:26:24.710Z,1.23
2017-10-05T20:28:53.700Z,1.83
2017-10-05T20:31:26.923Z,1.87
2017-10-05T20:33:54.465Z,1.30
2017-10-05T20:36:22.000Z,1.40
2017-10-05T20:38:49.528Z,1.70
2017-10-05T20:41:17.069Z,1.40
2017-10-05T20:43:44.575Z,1.90
2017-10-05T20:46:12.099Z,2.37
2017-10-05T20:48:39.610Z,2.70
2017-10-05T20:51:07.115Z,2.90
2017-10-05T20:53:34.653Z,2.80
2017-10-05T20:56:02.160Z,1.93
2017-10-05T20:58:29.692Z,1.80
2017-10-05T21:00:57.200Z,1.90
2017-10-05T21:03:24.725Z,2.10
2017-10-05T21:05:52.303Z,1.57
2017-10-05T21:08:19.922Z,1.80
2017-10-05T21:10:47.424Z,1.40
2017-10-05T21:13:14.952Z,2.13
2017-10-05T21:15:42.463Z,1.70
2017-10-05T21:18:10.014Z,1.77
2017-10-05T21:20:37.565Z,1.87
2017-10-05T21:23:05.062Z,1.87
2017-10-05T21:25:32.602Z,1.90
2017-10-05T21:28:00.140Z,1.70
2017-10-05T21:30:27.666Z,1.60
2017-10-05T21:32:55.177Z,1.47
2017-10-05T21:35:22.689Z,1.63
2017-10-05T21:37:50.223Z,1.37
2017-10-05T21:40:17.914Z,1.67
2017-10-05T21:42:45.482Z,2.23
2017-10-05T21:45:13.026Z,2.80
2017-10-05T21:47:40.559Z,2.30
2017-10-05T21:50:08.067Z,2.77
2017-10-05T21:52:35.614Z,2.10
2017-10-05T21:55:03.174Z,1.60
2017-10-05T21:57:30.730Z,2.10
2017-10-05T21:59:58.292Z,2.10
2017-10-05T22:02:25.956Z,2.20
2017-10-05T22:04:53.502Z,4.03
2017-10-05T22:07:21.035Z,2.43
2017-10-05T22:09:48.584Z,2.10
2017-10-05T22:12:16.291Z,1.97
2017-10-05T22:14:43.849Z,1.37
2017-10-05T22:17:11.405Z,1.50
2017-10-05T22:19:38.969Z,2.10
2017-10-05T22:22:06.539Z,2.03
2017-10-05T22:24:34.092Z,1.80
2017-10-05T22:27:01.635Z,1.97
2017-10-05T22:29:29.191Z,2.07
2017-10-05T22:31:56.768Z,1.87
2017-10-05T22:34:24.305Z,2.00
2017-10-05T22:36:51.854Z,1.77
2017-10-05T22:39:19.383Z,2.70
2017-10-05T22:41:46.953Z,2.80
2017-10-05T22:44:14.494Z,2.10
2017-10-05T22:46:42.029Z,2.30
2017-10-05T22:49:09.564Z,2.23
2017-10-05T22:51:37.121Z,2.77
2017-10-05T22:54:04.661Z,2.20
2017-10-05T22:56:32.194Z,2.57
2017-10-05T22:58:59.737Z,4.23
2017-10-05T23:01:27.274Z,2.83
2017-10-05T23:03:54.808Z,2.63
2017-10-05T23:06:22.345Z,3.20
2017-10-05T23:08:49.879Z,2.73
2017-10-05T23:11:17.508Z,3.03
2017-10-05T23:13:45.052Z,2.67
2017-10-05T23:16:12.594Z,2.10
2017-10-05T23:18:40.173Z,2.30
2017-10-05T23:21:07.713Z,5.17
2017-10-05T23:23:35.256Z,2.27
2017-10-05T23:26:02.808Z,2.57
2017-10-05T23:28:30.347Z,2.17
2017-10-05T23:30:57.898Z,1.80
2017-10-05T23:33:25.454Z,2.00
2017-10-05T23:35:53.009Z,2.87
2017-10-05T23:38:20.544Z,2.53
2017-10-05T23:40:48.088Z,2.40
2017-10-05T23:43:15.639Z,1.73
2017-10-05T23:45:43.171Z,2.13
2017-10-05T23:48:10.712Z,2.03
2017-10-05T23:50:38.260Z,2.30
2017-10-05T23:53:05.803Z,2.10
2017-10-05T23:55:33.417Z,2.47
2017-10-05T23:58:00.953Z,2.50
